Naginey, Pennsylvania
Current Conditions -  °F | °C
As of 3:35 AM on Thursday 18 Dec 2014 (Local Time) from KUNV Reporting Station
Overcast Overcast  
Wind Chill: 20°   Ceiling: 3900
Heat Index: 29°   Visibility: 10mi
Dew Point: 20°   Wind: 10mph
Humidity: 68%   Direction: 280°W
Pressure: 30.06"   Gusts: NA
Location:  40.7567°N, 77.488°W
Report Text: KUNV 180835Z AUTO 28009KT 10SM SCT028 SCT033 OVC039 M01/M07 A3006 RMK AO2 T10141067
Loading
Personal Weather Stations






























Interactive Weather Map New forecast layout! Learn more

10-Day Weather Forecast

Advertisements
Track Severe Weather on mobile